Time;durP1;ratioP1;P1;durP2;ratioP2;P2;SDS_P1;SDS_P2;PMS_P1;PMS_P2;Temp;Humidity;BMP_temperature;BMP_pressure;BME280_temperature;BME280_humidity;BME280_pressure;Samples;Min_cycle;Max_cycle;Signal;HPM_P1;HPM_P2
2022/11/21 00:00:11;;;;;;;;;4.50;1.75;;;;;8.85;100.00;101007.84;6205193;22;49629;-75
2022/11/21 00:02:36;;;;;;;;;3.00;2.50;;;;;8.83;100.00;101013.88;6206226;22;49755;-76
2022/11/21 00:05:01;;;;;;;;;3.25;3.00;;;;;8.80;100.00;101008.56;6205461;22;49484;-75
2022/11/21 00:07:27;;;;;;;;;3.25;3.25;;;;;8.79;100.00;101012.91;6205851;22;49864;-75
2022/11/21 00:09:52;;;;;;;;;4.25;3.00;;;;;8.78;100.00;101018.06;6205276;22;49692;-75
2022/11/21 00:12:17;;;;;;;;;2.00;2.00;;;;;8.69;100.00;101004.72;6205560;22;49850;-75
2022/11/21 00:14:42;;;;;;;;;2.50;2.50;;;;;8.75;100.00;101011.00;6206155;22;49810;-75
2022/11/21 00:17:09;;;;;;;;;4.00;2.50;;;;;8.67;100.00;101002.03;6204629;22;50347;-77
2022/11/21 00:19:34;;;;;;;;;3.75;2.75;;;;;8.71;100.00;101005.66;6205648;22;49597;-76
2022/11/21 00:21:59;;;;;;;;;3.00;3.00;;;;;8.72;100.00;101010.03;6205476;22;49775;-75
2022/11/21 00:24:24;;;;;;;;;3.00;2.25;;;;;8.61;100.00;100978.28;6205746;22;49549;-75
2022/11/21 00:26:50;;;;;;;;;2.00;2.00;;;;;8.63;100.00;100966.13;6205193;22;50555;-75
2022/11/21 00:29:15;;;;;;;;;7.00;5.00;;;;;8.82;100.00;100985.94;6205367;22;49511;-75
2022/11/21 00:31:40;;;;;;;;;3.50;3.50;;;;;8.84;100.00;100985.13;6205114;22;49876;-76
2022/11/21 00:34:06;;;;;;;;;5.00;3.00;;;;;8.88;100.00;100976.56;6205788;22;50123;-75
2022/11/21 00:36:31;;;;;;;;;7.00;4.00;;;;;8.88;100.00;100967.81;6205119;22;49635;-76
2022/11/21 00:38:56;;;;;;;;;3.25;1.75;;;;;8.78;100.00;100939.53;6205660;22;50242;-74
2022/11/21 00:41:22;;;;;;;;;6.00;3.00;;;;;8.79;100.00;100923.03;6205736;22;49721;-74
2022/11/21 00:43:47;;;;;;;;;5.75;2.25;;;;;9.00;100.00;100956.81;6205586;22;49514;-76
2022/11/21 00:46:12;;;;;;;;;5.00;2.75;;;;;8.70;100.00;100894.84;6177752;22;51324;-75
2022/11/21 00:48:37;;;;;;;;;2.00;2.00;;;;;8.98;100.00;100930.59;6205156;22;49593;-75
2022/11/21 00:51:03;;;;;;;;;6.00;4.00;;;;;9.08;100.00;100948.34;6178323;22;49733;-75
2022/11/21 00:53:28;;;;;;;;;3.00;3.00;;;;;9.10;100.00;100948.38;6205786;22;49885;-75
2022/11/21 00:55:54;;;;;;;;;7.25;3.25;;;;;8.94;100.00;100914.72;6205032;22;49913;-75
2022/11/21 00:58:19;;;;;;;;;1.75;1.75;;;;;9.13;100.00;100944.13;6205561;22;49743;-75
2022/11/21 01:00:45;;;;;;;;;1.50;1.00;;;;;9.03;100.00;100925.47;6205181;22;49771;-75
2022/11/21 01:03:10;;;;;;;;;1.75;1.75;;;;;9.14;100.00;100932.78;6204812;22;49651;-75
2022/11/21 01:05:35;;;;;;;;;2.00;2.00;;;;;9.02;100.00;100910.59;6204541;22;49836;-74
2022/11/21 01:08:00;;;;;;;;;6.00;3.00;;;;;9.10;100.00;100935.28;6205423;22;49827;-74
2022/11/21 01:10:26;;;;;;;;;3.00;2.00;;;;;9.10;100.00;100933.56;6205005;22;49666;-75
2022/11/21 01:12:51;;;;;;;;;2.00;1.25;;;;;9.08;100.00;100924.78;6205361;22;49632;-75
2022/11/21 01:15:17;;;;;;;;;6.75;4.00;;;;;9.03;100.00;100910.66;6204697;22;49716;-75
2022/11/21 01:17:42;;;;;;;;;4.25;3.00;;;;;9.10;100.00;100920.47;6205671;22;49643;-74
2022/11/21 01:20:08;;;;;;;;;4.75;2.50;;;;;9.11;100.00;100922.25;6205165;22;49714;-75
2022/11/21 01:22:33;;;;;;;;;2.00;1.00;;;;;8.87;100.00;100871.75;6178335;22;49939;-75
2022/11/21 01:24:58;;;;;;;;;1.50;1.25;;;;;9.12;100.00;100916.16;6204716;22;49590;-75
2022/11/21 01:27:24;;;;;;;;;3.50;3.50;;;;;9.14;100.00;100914.47;6204779;22;52672;-75
2022/11/21 01:29:51;;;;;;;;;5.00;5.00;;;;;9.07;100.00;100893.28;6204914;22;49627;-75
2022/11/21 01:32:16;;;;;;;;;3.00;3.00;;;;;8.48;100.00;100799.06;6204962;22;49814;-75
2022/11/21 01:34:42;;;;;;;;;3.00;2.75;;;;;9.16;100.00;100910.16;6205141;22;49917;-75
2022/11/21 01:37:07;;;;;;;;;3.50;2.50;;;;;9.14;100.00;100906.59;6205455;22;49579;-75
2022/11/21 01:39:32;;;;;;;;;2.25;2.25;;;;;9.07;100.00;100896.81;6204868;22;49846;-75
2022/11/21 01:41:58;;;;;;;;;2.75;2.75;;;;;9.09;100.00;100897.75;6178364;22;50090;-75
2022/11/21 01:44:25;;;;;;;;;1.50;1.00;;;;;9.04;100.00;100883.63;6204488;22;49693;-75
2022/11/21 01:46:52;;;;;;;;;1.00;1.00;;;;;9.06;100.00;100889.78;6205042;22;49938;-74
2022/11/21 01:49:23;;;;;;;;;1.75;1.75;;;;;9.03;100.00;100892.31;6205157;22;49725;-75
2022/11/21 01:52:17;;;;;;;;;2.25;1.00;;;;;8.99;100.00;100876.50;6178006;22;49945;-74
2022/11/21 01:55:08;;;;;;;;;4.00;4.00;;;;;8.89;100.00;100868.38;6192383;22;50605;-75
2022/11/21 01:57:40;;;;;;;;;4.00;3.00;;;;;8.93;100.00;100863.22;6204625;22;49704;-76
2022/11/21 02:00:22;;;;;;;;;3.75;2.25;;;;;8.76;100.00;100834.81;6204307;22;49956;-74
2022/11/21 02:02:52;;;;;;;;;2.50;2.00;;;;;8.88;100.00;100863.09;6205115;22;49537;-75
2022/11/21 02:05:24;;;;;;;;;1.25;1.25;;;;;8.76;100.00;100860.09;6177138;22;52542;-73
2022/11/21 02:07:54;;;;;;;;;3.00;2.25;;;;;8.83;100.00;100872.53;6205054;22;49587;-77
2022/11/21 02:10:21;;;;;;;;;3.75;1.25;;;;;8.84;100.00;100874.28;6205036;22;49665;-74
2022/11/21 02:12:52;;;;;;;;;2.00;2.00;;;;;8.68;100.00;100841.53;6204880;22;49433;-74
2022/11/21 02:15:20;;;;;;;;;6.75;3.75;;;;;8.80;100.00;100848.88;6204428;22;50754;-74
2022/11/21 02:17:45;;;;;;;;;2.00;1.00;;;;;8.71;100.00;100848.63;6177617;22;49691;-74
2022/11/21 02:20:16;;;;;;;;;4.00;3.00;;;;;8.67;100.00;100826.69;6204265;22;49493;-74
2022/11/21 02:23:00;;;;;;;;;3.50;2.50;;;;;8.81;100.00;100832.34;6205456;22;49968;-74
2022/11/21 02:25:31;;;;;;;;;9.00;6.25;;;;;8.87;100.00;100841.22;6206211;22;49698;-74
2022/11/21 02:28:03;;;;;;;;;2.25;1.25;;;;;8.70;100.00;100807.59;6179268;22;49911;-74
2022/11/21 02:30:31;;;;;;;;;4.00;3.00;;;;;8.89;100.00;100825.59;6206140;22;49663;-74
2022/11/21 02:32:57;;;;;;;;;6.00;4.00;;;;;8.89;100.00;100838.69;6206411;22;49876;-74
2022/11/21 02:35:23;;;;;;;;;6.75;2.00;;;;;8.89;100.00;100828.22;6205771;22;50528;-75
2022/11/21 02:38:02;;;;;;;;;5.50;4.00;;;;;8.90;100.00;100824.75;6205753;22;49543;-75
2022/11/21 02:40:33;;;;;;;;;8.00;3.00;;;;;8.89;100.00;100833.44;6179174;22;49833;-75
2022/11/21 02:43:17;;;;;;;;;3.75;3.75;;;;;8.90;100.00;100827.38;6206385;22;49851;-75
2022/11/21 02:45:45;;;;;;;;;2.00;1.50;;;;;8.91;100.00;100823.00;6206116;22;50460;-74
2022/11/21 02:48:10;;;;;;;;;3.50;2.75;;;;;8.86;100.00;100818.50;6205448;22;49595;-74
2022/11/21 02:50:38;;;;;;;;;3.00;2.00;;;;;8.92;100.00;100817.81;6178448;22;49774;-74
2022/11/21 02:53:05;;;;;;;;;5.50;3.25;;;;;8.93;100.00;100816.09;6206238;22;49846;-76
2022/11/21 02:55:30;;;;;;;;;8.75;6.50;;;;;8.92;100.00;100809.97;6205444;22;50724;-75
2022/11/21 02:57:56;;;;;;;;;2.50;1.25;;;;;8.92;100.00;100814.31;6205802;22;50477;-75
2022/11/21 03:00:21;;;;;;;;;2.00;2.00;;;;;8.73;100.00;100776.25;6205779;22;49596;-75
2022/11/21 03:02:47;;;;;;;;;3.00;3.00;;;;;8.71;100.00;100778.84;6179312;22;49747;-75
2022/11/21 03:05:15;;;;;;;;;5.00;5.00;;;;;8.90;100.00;100806.41;6205246;22;50381;-75
2022/11/21 03:07:40;;;;;;;;;1.50;1.50;;;;;8.91;100.00;100796.84;6205888;22;50341;-77
2022/11/21 03:10:06;;;;;;;;;6.00;2.75;;;;;8.88;100.00;100797.66;6206029;22;49885;-75
2022/11/21 03:12:35;;;;;;;;;5.50;5.50;;;;;8.74;100.00;100783.25;6205881;22;49841;-76
2022/11/21 03:15:00;;;;;;;;;3.00;2.50;;;;;8.80;100.00;100781.72;6206089;22;50557;-75
2022/11/21 03:17:25;;;;;;;;;8.00;5.00;;;;;8.86;100.00;100788.84;6178790;22;49829;-75
2022/11/21 03:19:51;;;;;;;;;2.00;2.00;;;;;8.63;100.00;100738.47;6206402;22;50628;-74
2022/11/21 03:22:16;;;;;;;;;3.00;2.00;;;;;8.83;100.00;100767.81;6178620;22;49808;-75
2022/11/21 03:24:41;;;;;;;;;8.00;4.00;;;;;8.81;100.00;100767.78;6205132;22;50361;-75
2022/11/21 03:27:07;;;;;;;;;4.00;2.50;;;;;8.30;100.00;100672.97;6205402;22;49571;-75
2022/11/21 03:29:32;;;;;;;;;2.00;2.00;;;;;8.72;100.00;100748.31;6178674;22;49873;-74
2022/11/21 03:31:58;;;;;;;;;6.25;2.00;;;;;8.80;100.00;100757.28;6204862;22;49640;-76
2022/11/21 03:34:23;;;;;;;;;6.50;4.00;;;;;8.80;100.00;100749.41;6204877;22;50295;-75
2022/11/21 03:36:49;;;;;;;;;3.00;3.00;;;;;8.79;100.00;100743.28;6205588;22;49705;-74
2022/11/21 03:39:14;;;;;;;;;1.00;1.00;;;;;8.79;100.00;100745.91;6205530;22;49632;-74
2022/11/21 03:41:40;;;;;;;;;4.00;3.00;;;;;8.60;100.00;100714.84;6205389;22;49913;-74
2022/11/21 03:44:08;;;;;;;;;2.00;2.00;;;;;8.76;100.00;100734.44;6205522;22;49852;-77
2022/11/21 03:46:36;;;;;;;;;3.00;2.00;;;;;8.74;100.00;100729.19;6205666;22;49646;-74
2022/11/21 03:49:01;;;;;;;;;5.50;5.50;;;;;8.56;100.00;100692.91;6205286;22;49884;-74
2022/11/21 03:51:27;;;;;;;;;3.50;3.50;;;;;8.71;100.00;100709.91;6205965;22;49746;-74
2022/11/21 03:53:53;;;;;;;;;5.50;5.50;;;;;8.67;100.00;100700.19;6205435;22;49603;-75
2022/11/21 03:56:18;;;;;;;;;4.00;4.00;;;;;8.70;100.00;100709.03;6205198;22;49798;-75
2022/11/21 03:58:44;;;;;;;;;1.00;1.00;;;;;8.45;100.00;100651.63;6205345;22;49761;-75
2022/11/21 04:01:11;;;;;;;;;6.00;6.00;;;;;8.70;100.00;100700.28;6205506;22;49638;-74
2022/11/21 04:03:37;;;;;;;;;6.50;4.00;;;;;8.65;100.00;100683.56;6204732;22;49658;-75
2022/11/21 04:06:03;;;;;;;;;3.00;3.00;;;;;8.65;100.00;100675.69;6205148;22;50245;-76
2022/11/21 04:08:28;;;;;;;;;4.00;2.00;;;;;8.68;100.00;100675.78;6205696;22;49703;-74
2022/11/21 04:10:54;;;;;;;;;7.25;4.25;;;;;8.68;100.00;100665.31;6205712;22;49914;-75
2022/11/21 04:13:20;;;;;;;;;5.50;3.75;;;;;8.52;100.00;100638.75;6205298;22;49940;-74
2022/11/21 04:15:45;;;;;;;;;5.50;3.25;;;;;8.65;100.00;100653.03;6205782;22;49801;-75
2022/11/21 04:18:12;;;;;;;;;3.50;3.00;;;;;8.65;100.00;100644.31;6205405;22;49646;-74
2022/11/21 04:20:38;;;;;;;;;3.00;3.00;;;;;8.58;100.00;100632.78;6205830;22;49781;-75
2022/11/21 04:23:04;;;;;;;;;6.00;5.00;;;;;8.49;100.00;100622.97;6205228;22;49596;-75
2022/11/21 04:25:30;;;;;;;;;6.75;4.50;;;;;8.42;100.00;100596.59;6205200;22;49921;-74
2022/11/21 04:27:59;;;;;;;;;5.50;4.00;;;;;8.34;100.00;100596.34;6206139;22;50262;-76
2022/11/21 04:30:25;;;;;;;;;4.25;3.50;;;;;8.55;100.00;100633.59;6205630;22;49770;-75
2022/11/21 04:32:51;;;;;;;;;6.75;6.50;;;;;8.49;100.00;100617.75;6205112;22;49915;-75
2022/11/21 04:35:17;;;;;;;;;2.75;2.50;;;;;8.50;100.00;100629.97;6205618;22;49533;-76
2022/11/21 04:37:42;;;;;;;;;7.75;6.25;;;;;8.36;100.00;100606.88;6205342;22;49796;-75
2022/11/21 04:40:08;;;;;;;;;6.50;5.25;;;;;8.44;100.00;100627.19;6205573;22;49568;-75
2022/11/21 04:42:34;;;;;;;;;5.75;5.75;;;;;8.43;100.00;100633.25;6204657;22;49936;-75
2022/11/21 04:44:59;;;;;;;;;7.00;7.00;;;;;8.35;100.00;100606.00;6204833;22;49659;-77
2022/11/21 04:47:24;;;;;;;;;13.25;7.25;;;;;8.13;100.00;100564.41;6205368;22;49745;-74
2022/11/21 04:49:50;;;;;;;;;2.00;2.00;;;;;8.39;100.00;100599.13;6206073;22;50094;-75
2022/11/21 04:52:15;;;;;;;;;4.00;4.00;;;;;8.29;100.00;100584.88;6205103;22;49737;-75
2022/11/21 04:54:40;;;;;;;;;8.50;6.00;;;;;8.36;100.00;100585.97;6205602;22;49779;-75
2022/11/21 04:57:06;;;;;;;;;5.50;4.00;;;;;8.27;100.00;100576.09;6178378;22;49655;-75
2022/11/21 04:59:31;;;;;;;;;6.50;6.50;;;;;8.19;100.00;100567.16;6205291;22;49917;-75
2022/11/21 05:01:56;;;;;;;;;3.50;3.50;;;;;8.34;100.00;100583.28;6206002;22;53390;-75
2022/11/21 05:04:22;;;;;;;;;3.00;1.00;;;;;8.36;100.00;100575.50;6205323;22;49666;-74
2022/11/21 05:06:47;;;;;;;;;6.75;6.50;;;;;8.36;100.00;100576.38;6204827;22;49624;-75
2022/11/21 05:09:12;;;;;;;;;10.00;7.25;;;;;8.11;100.00;100530.38;6205275;22;49925;-73
2022/11/21 05:14:25;;;;;;;;;6.75;5.00;;;;;8.31;100.00;100542.25;6205117;22;49627;-74
2022/11/21 05:16:51;;;;;;;;;6.50;3.50;;;;;8.36;100.00;100549.34;6204522;22;49667;-75
2022/11/21 05:19:17;;;;;;;;;4.50;2.25;;;;;8.35;100.00;100547.56;6204840;22;49570;-75
2022/11/21 05:21:42;;;;;;;;;12.00;8.00;;;;;8.33;100.00;100544.91;6205305;22;50713;-75
2022/11/21 05:24:07;;;;;;;;;6.25;6.25;;;;;8.41;100.00;100555.59;6204704;22;49830;-75
2022/11/21 05:26:33;;;;;;;;;5.50;5.25;;;;;8.04;100.00;100490.09;6204634;22;49539;-75
2022/11/21 05:28:59;;;;;;;;;12.25;6.25;;;;;8.29;100.00;100537.78;6177721;22;50058;-75
2022/11/21 05:31:24;;;;;;;;;4.00;4.00;;;;;8.21;100.00;100518.44;6204626;22;50499;-74
2022/11/21 05:33:49;;;;;;;;;7.25;6.75;;;;;8.43;100.00;100553.91;6205060;22;49772;-76
2022/11/21 05:36:15;;;;;;;;;4.50;4.25;;;;;8.19;100.00;100509.63;6204866;22;49954;-75
2022/11/21 05:38:41;;;;;;;;;7.50;3.00;;;;;8.44;100.00;100553.06;6205186;22;49791;-75
2022/11/21 05:41:12;;;;;;;;;6.25;5.00;;;;;8.36;100.00;100538.88;6204760;22;50762;-78
2022/11/21 10:26:55;;;;;;;;;11.50;11.50;;;;;9.26;100.00;99727.41;6221320;22;49779;-79
2022/11/21 10:29:31;;;;;;;;;14.25;13.00;;;;;10.17;100.00;99868.88;6238743;22;49844;-80
2022/11/21 10:32:01;;;;;;;;;13.75;13.00;;;;;10.23;100.00;99873.31;6208910;22;49665;-80
2022/11/21 10:34:35;;;;;;;;;14.00;11.50;;;;;10.29;100.00;99862.88;6238214;22;49982;-82
2022/11/21 10:37:18;;;;;;;;;16.25;13.50;;;;;10.38;100.00;99857.72;6236112;22;49681;-82
2022/11/21 10:39:47;;;;;;;;;15.50;12.25;;;;;10.42;100.00;99862.13;6234645;22;50614;-84
2022/11/21 10:42:31;;;;;;;;;8.00;8.00;;;;;10.46;100.00;99855.16;6234052;22;49479;-83
2022/11/21 10:45:21;;;;;;;;;13.50;12.00;;;;;10.53;100.00;99838.59;6236993;22;49844;-89
2022/11/21 10:47:51;;;;;;;;;14.50;9.25;;;;;10.55;100.00;99826.34;6240237;22;49927;-83
2022/11/21 10:50:42;;;;;;;;;10.75;10.75;;;;;10.54;100.00;99809.72;6236120;22;49865;-78
2022/11/21 10:56:11;;;;;;;;;7.50;7.50;;;;;10.27;100.00;99767.56;6238267;22;49618;-80
2022/11/21 10:58:43;;;;;;;;;9.00;8.50;;;;;10.28;100.00;99746.59;6242396;22;49615;-76
2022/11/21 11:01:18;;;;;;;;;12.25;9.75;;;;;10.58;100.00;99786.97;6239330;22;50582;-75
2022/11/21 11:04:03;;;;;;;;;13.00;10.75;;;;;10.49;100.00;99777.31;6241200;22;49579;-78
2022/11/21 11:06:29;;;;;;;;;10.00;5.00;;;;;10.52;100.00;99800.97;6241344;22;49603;-79
2022/11/21 11:08:54;;;;;;;;;8.00;4.00;;;;;10.42;100.00;99778.16;6237881;22;49516;-80
2022/11/21 11:11:21;;;;;;;;;9.00;8.25;;;;;10.36;100.00;99758.88;6237706;22;49702;-77
2022/11/21 11:13:56;;;;;;;;;7.25;5.50;;;;;10.51;100.00;99786.06;6236614;22;49700;-78
2022/11/21 11:16:23;;;;;;;;;10.25;7.75;;;;;10.06;100.00;99701.84;6236702;22;49440;-81
2022/11/21 11:19:02;;;;;;;;;8.00;5.00;;;;;10.21;100.00;99743.88;6235890;22;49912;-81
2022/11/21 11:21:48;;;;;;;;;9.00;7.50;;;;;10.38;100.00;99775.50;6236472;22;49895;-81
2022/11/21 11:24:13;;;;;;;;;10.75;9.00;;;;;10.36;100.00;99766.75;6237920;22;49524;-84
2022/11/21 11:26:48;;;;;;;;;7.50;7.50;;;;;10.37;100.00;99764.13;6236805;22;49974;-82
2022/11/21 11:29:16;;;;;;;;;7.75;6.75;;;;;10.32;100.00;99752.72;6235995;22;49707;-85
2022/11/21 11:31:57;;;;;;;;;8.25;7.75;;;;;9.94;100.00;99671.16;6208474;22;52353;-85
2022/11/21 11:34:26;;;;;;;;;16.75;10.75;;;;;9.95;100.00;99673.81;6236221;22;49796;-81
2022/11/21 11:37:11;;;;;;;;;7.50;5.50;;;;;10.32;100.00;99716.00;6236594;22;49509;-78
2022/11/21 11:39:55;;;;;;;;;7.25;7.25;;;;;10.28;100.00;99704.63;6237509;22;49833;-78
2022/11/21 11:48:18;;;;;;;;;8.75;8.75;;;;;10.15;100.00;99652.06;6241657;22;49704;-84
2022/11/21 11:50:55;;;;;;;;;8.75;4.25;;;;;10.18;100.00;99649.47;6235465;22;49798;-83
2022/11/21 11:53:26;;;;;;;;;7.75;7.75;;;;;9.80;100.00;99560.13;6236636;22;50780;-82
2022/11/21 11:56:10;;;;;;;;;7.25;6.50;;;;;10.04;100.00;99596.97;6237696;22;49897;-85
2022/11/21 11:59:03;;;;;;;;;7.50;6.75;;;;;9.99;100.00;99572.47;6239592;22;49624;-80
2022/11/21 12:01:49;;;;;;;;;8.00;8.00;;;;;9.80;100.00;99566.25;6241250;22;49705;-81
2022/11/21 12:04:24;;;;;;;;;6.00;6.00;;;;;9.99;100.00;99575.06;6236732;22;50372;-76
2022/11/21 12:07:24;;;;;;;;;7.25;7.25;;;;;10.02;100.00;99554.09;6246409;22;49589;-79
2022/11/21 12:10:09;;;;;;;;;8.50;7.00;;;;;10.10;100.00;99546.28;6237768;22;49695;-73
2022/11/21 12:12:39;;;;;;;;;8.00;7.50;;;;;10.17;100.00;99550.69;6240790;22;49603;-71
2022/11/21 12:18:18;;;;;;;;;8.25;6.00;;;;;10.27;100.00;99537.63;6237025;22;49683;-71
2022/11/21 12:20:55;;;;;;;;;9.00;8.00;;;;;10.20;100.00;99513.97;6236618;22;49661;-72
2022/11/21 12:23:24;;;;;;;;;9.00;4.25;;;;;10.21;100.00;99503.47;6236578;22;49527;-71
2022/11/21 12:26:14;;;;;;;;;8.75;7.25;;;;;10.15;100.00;99495.59;6236791;22;50496;-73
2022/11/21 12:29:14;;;;;;;;;7.00;7.00;;;;;10.17;100.00;99491.22;6240109;22;49766;-88
2022/11/21 12:32:07;;;;;;;;;12.75;9.75;;;;;10.22;100.00;99480.75;6236712;22;49682;-80
2022/11/21 12:35:06;;;;;;;;;8.75;7.50;;;;;10.17;100.00;99478.13;6233446;22;49500;-85
2022/11/21 12:37:44;;;;;;;;;10.25;8.75;;;;;9.95;100.00;99435.25;6236686;22;51132;-86
2022/11/21 12:40:25;;;;;;;;;8.00;5.75;;;;;10.16;100.00;99460.63;6237066;22;49629;-79
2022/11/21 12:43:12;;;;;;;;;9.50;7.75;;;;;10.17;100.00;99451.03;6243333;22;49691;-83
2022/11/21 12:45:51;;;;;;;;;9.25;6.00;;;;;10.17;100.00;99443.16;6246015;22;49355;-82
2022/11/21 12:55:00;;;;;;;;;12.50;10.75;;;;;10.10;100.00;99410.78;6248353;22;49177;-81
2022/11/21 12:57:50;;;;;;;;;9.50;8.00;;;;;10.04;100.00;99400.31;6247756;22;49285;-80
2022/11/21 13:00:37;;;;;;;;;8.50;7.50;;;;;10.10;100.00;99399.44;6242671;22;50119;-81
2022/11/21 13:03:18;;;;;;;;;10.00;8.00;;;;;10.12;100.00;99389.81;6239778;22;49626;-82
2022/11/21 13:05:48;;;;;;;;;4.75;4.75;;;;;10.15;100.00;99367.09;6239743;22;49581;-81
2022/11/21 13:08:21;;;;;;;;;5.50;5.50;;;;;9.94;100.00;99326.03;6239324;22;49554;-82
2022/11/21 13:14:03;;;;;;;;;10.75;9.00;;;;;10.14;100.00;99312.91;6247218;22;49422;-82
2022/11/21 13:16:38;;;;;;;;;5.75;2.75;;;;;9.98;100.00;99271.84;6245518;22;49608;-82
2022/11/21 13:19:13;;;;;;;;;8.00;5.00;;;;;9.62;100.00;99181.88;6248732;22;49310;-81
2022/11/21 13:21:48;;;;;;;;;7.00;7.00;;;;;9.87;100.00;99232.53;6247330;22;49486;-83
2022/11/21 13:24:44;;;;;;;;;7.00;7.00;;;;;10.03;100.00;99259.59;6245831;22;49333;-82
2022/11/21 13:27:30;;;;;;;;;6.50;4.25;;;;;9.93;100.00;99266.59;6245779;22;49484;-82
2022/11/21 13:30:08;;;;;;;;;9.00;7.00;;;;;9.89;100.00;99262.22;6247052;22;49188;-82
2022/11/21 13:32:41;;;;;;;;;6.25;6.25;;;;;9.93;100.00;99255.22;6220831;22;51077;-83
2022/11/21 13:35:15;;;;;;;;;7.75;6.00;;;;;9.96;100.00;99250.00;6247361;22;50429;-81
2022/11/21 13:37:58;;;;;;;;;3.00;3.00;;;;;9.94;100.00;99233.38;6247270;22;49462;-81
2022/11/21 13:40:26;;;;;;;;;6.50;6.50;;;;;9.99;100.00;99236.88;6245439;22;49252;-83
2022/11/21 13:43:18;;;;;;;;;8.75;4.00;;;;;9.98;100.00;99230.78;6246971;22;49519;-76
2022/11/21 13:45:44;;;;;;;;;4.75;3.50;;;;;9.71;100.00;99188.84;6246534;22;49308;-81
2022/11/21 13:48:27;;;;;;;;;6.75;4.25;;;;;9.93;100.00;99210.66;6240434;22;49876;-74
2022/11/21 13:50:52;;;;;;;;;3.75;3.00;;;;;9.92;100.00;99195.81;6245902;22;49734;-74
2022/11/21 13:53:31;;;;;;;;;11.25;8.00;;;;;9.95;100.00;99207.19;6245558;22;49404;-80
2022/11/21 13:56:28;;;;;;;;;3.00;3.00;;;;;9.77;100.00;99170.53;6243209;22;49589;-80
2022/11/21 13:59:30;;;;;;;;;4.75;4.00;;;;;9.79;100.00;99179.25;6241765;22;49811;-80
2022/11/21 14:02:08;;;;;;;;;3.00;3.00;;;;;9.96;100.00;99187.97;6218037;22;49690;-80
2022/11/21 14:04:51;;;;;;;;;7.75;4.50;;;;;10.00;100.00;99183.56;6245537;22;50212;-79
2022/11/21 14:07:30;;;;;;;;;3.25;3.25;;;;;10.02;100.00;99166.09;6244093;22;49679;-81
2022/11/21 14:10:00;;;;;;;;;6.00;4.25;;;;;9.85;100.00;99123.34;6240339;22;49645;-80
2022/11/21 14:12:35;;;;;;;;;4.25;3.75;;;;;10.14;100.00;99142.47;6242303;22;49463;-80
2022/11/21 14:15:01;;;;;;;;;7.00;4.00;;;;;10.13;100.00;99156.44;6241702;22;49822;-80
2022/11/21 14:17:43;;;;;;;;;4.00;3.00;;;;;9.85;100.00;99094.50;6235747;22;49751;-80
2022/11/21 14:20:22;;;;;;;;;6.50;3.50;;;;;10.04;100.00;99132.91;6248189;22;49794;-81
2022/11/21 14:22:55;;;;;;;;;3.25;1.75;;;;;9.96;100.00;99117.19;6240587;22;49853;-76
2022/11/21 14:25:33;;;;;;;;;3.00;1.75;;;;;9.68;100.00;99073.59;6237828;22;49753;-76
2022/11/21 14:27:59;;;;;;;;;5.00;3.25;;;;;9.87;100.00;99096.25;6237574;22;49817;-76
2022/11/21 14:30:33;;;;;;;;;6.50;3.75;;;;;9.86;100.00;99086.63;6237467;22;49798;-76
2022/11/21 14:33:21;;;;;;;;;2.00;2.00;;;;;9.92;100.00;99093.59;6208733;22;49934;-76
2022/11/21 14:36:21;;;;;;;;;7.00;3.00;;;;;9.83;100.00;99077.88;6242894;22;50539;-76
2022/11/21 14:38:49;;;;;;;;;2.50;2.00;;;;;9.75;100.00;99057.84;6208045;22;49725;-77
2022/11/21 14:41:25;;;;;;;;;3.00;3.00;;;;;9.77;100.00;99052.59;6243221;22;49398;-77
2022/11/21 14:44:11;;;;;;;;;4.75;2.00;;;;;9.71;100.00;99063.09;6239580;22;49749;-76
2022/11/21 14:46:38;;;;;;;;;2.75;2.00;;;;;9.49;100.00;99029.97;6218754;22;49785;-77
2022/11/21 14:49:09;;;;;;;;;4.25;4.25;;;;;9.66;100.00;99070.97;6238832;22;49611;-77
2022/11/21 14:51:35;;;;;;;;;4.00;3.25;;;;;9.44;100.00;99037.81;6240334;22;49610;-77
2022/11/21 14:54:01;;;;;;;;;6.50;5.00;;;;;9.45;100.00;99032.56;6238085;22;49610;-77
2022/11/21 14:56:33;;;;;;;;;3.00;3.00;;;;;9.48;100.00;99055.28;6242347;22;50650;-77
2022/11/21 14:59:02;;;;;;;;;3.75;3.00;;;;;9.27;100.00;99011.69;6240330;22;49492;-78
2022/11/21 15:01:30;;;;;;;;;8.25;4.00;;;;;9.21;100.00;99010.81;6238879;22;49874;-76
2022/11/21 15:04:04;;;;;;;;;2.75;2.75;;;;;9.22;100.00;99016.03;6236942;22;49705;-77
2022/11/21 15:06:39;;;;;;;;;2.50;2.00;;;;;9.46;100.00;99041.34;6241100;22;50571;-77
2022/11/21 15:09:04;;;;;;;;;3.75;3.00;;;;;9.42;100.00;99042.19;6242029;22;49512;-76
2022/11/21 15:11:34;;;;;;;;;2.75;2.75;;;;;9.43;100.00;99036.94;6218777;22;49591;-76
2022/11/21 15:14:06;;;;;;;;;6.00;4.00;;;;;9.44;100.00;99030.84;6242610;22;49661;-76
2022/11/21 15:16:32;;;;;;;;;8.00;6.25;;;;;9.43;100.00;99030.84;6237961;22;49847;-77
2022/11/21 15:18:58;;;;;;;;;4.75;4.00;;;;;9.27;100.00;99003.84;6241217;22;49421;-77
2022/11/21 15:21:23;;;;;;;;;3.75;3.25;;;;;9.41;100.00;99022.13;6240789;22;49691;-84
2022/11/21 15:23:50;;;;;;;;;5.25;3.50;;;;;9.42;100.00;99021.25;6241558;22;49516;-73
2022/11/21 15:26:32;;;;;;;;;6.00;4.00;;;;;9.39;100.00;99026.50;6236646;22;49768;-73
2022/11/21 15:28:59;;;;;;;;;4.75;2.75;;;;;9.31;100.00;99002.06;6207500;22;49864;-75
2022/11/21 15:31:25;;;;;;;;;3.00;3.00;;;;;9.37;100.00;99029.13;6235368;22;49824;-75
2022/11/21 15:34:00;;;;;;;;;3.00;3.00;;;;;9.37;100.00;99023.88;6236321;22;49867;-77
2022/11/21 15:36:27;;;;;;;;;4.75;3.50;;;;;9.41;100.00;99028.22;6238263;22;50598;-76
2022/11/21 15:38:56;;;;;;;;;2.00;2.00;;;;;9.40;100.00;99042.19;6237319;22;49852;-73
2022/11/21 15:41:31;;;;;;;;;6.75;6.25;;;;;9.44;100.00;99061.38;6236380;22;49797;-76
2022/11/21 15:43:59;;;;;;;;;1.50;1.50;;;;;9.44;100.00;99067.50;6236868;22;49801;-74
2022/11/21 15:46:26;;;;;;;;;5.25;3.50;;;;;9.43;100.00;99085.84;6235489;22;49669;-74
2022/11/21 15:49:04;;;;;;;;;5.25;3.25;;;;;9.47;100.00;99050.94;6237462;22;49720;-75
2022/11/21 15:51:37;;;;;;;;;5.50;3.00;;;;;9.48;100.00;99042.19;6237523;22;49761;-75
2022/11/21 15:54:04;;;;;;;;;5.25;3.25;;;;;9.36;100.00;99024.75;6239969;22;49845;-74
2022/11/21 15:56:30;;;;;;;;;2.75;2.75;;;;;9.49;100.00;99061.41;6240643;22;49626;-75
2022/11/21 15:58:56;;;;;;;;;2.00;2.00;;;;;9.50;100.00;99065.75;6236664;22;49630;-76
2022/11/21 16:01:24;;;;;;;;;2.50;2.50;;;;;9.36;100.00;99031.72;6212586;22;49975;-78
2022/11/21 16:03:55;;;;;;;;;2.50;1.00;;;;;9.15;100.00;98983.75;6243144;22;49547;-77
2022/11/21 16:06:21;;;;;;;;;2.50;2.50;;;;;9.36;100.00;99023.88;6212814;22;52276;-77
2022/11/21 16:08:47;;;;;;;;;3.00;3.00;;;;;9.56;100.00;99036.94;6209994;22;49835;-76
2022/11/21 16:11:30;;;;;;;;;2.75;2.75;;;;;9.66;100.00;99055.25;6237190;22;49643;-76
2022/11/21 16:13:58;;;;;;;;;2.00;2.00;;;;;9.70;100.00;99070.06;6240012;22;49592;-76
2022/11/21 16:16:26;;;;;;;;;4.00;4.00;;;;;9.61;100.00;99043.03;6236051;22;50515;-77
2022/11/21 16:18:51;;;;;;;;;4.00;3.50;;;;;9.61;100.00;99037.78;6235880;22;49592;-77
2022/11/21 16:21:17;;;;;;;;;4.50;3.00;;;;;9.50;100.00;99014.25;6236698;22;49888;-80
2022/11/21 16:23:42;;;;;;;;;2.50;2.50;;;;;9.79;100.00;99052.59;6210641;22;50289;-78
2022/11/21 16:26:09;;;;;;;;;3.00;3.00;;;;;9.53;100.00;98995.88;6238768;22;49673;-77
2022/11/21 16:28:36;;;;;;;;;3.75;2.75;;;;;8.46;100.00;98838.25;6242334;22;49519;-77
2022/11/21 16:31:02;;;;;;;;;2.50;2.50;;;;;9.54;100.00;98992.38;6239656;22;49507;-74
2022/11/21 16:33:31;;;;;;;;;3.75;2.25;;;;;9.85;100.00;99037.72;6236062;22;49777;-76
2022/11/21 16:35:57;;;;;;;;;4.25;3.00;;;;;9.86;100.00;99051.69;6236503;22;50725;-74
2022/11/21 16:38:24;;;;;;;;;3.75;3.75;;;;;9.84;100.00;99058.66;6235755;22;49736;-76
2022/11/21 16:41:02;;;;;;;;;6.50;4.00;;;;;9.59;100.00;99013.34;6238614;22;49607;-79
2022/11/21 16:43:28;;;;;;;;;5.75;5.00;;;;;9.76;100.00;99043.00;6239477;22;49805;-78
2022/11/21 16:45:54;;;;;;;;;8.75;6.50;;;;;9.46;100.00;98987.19;6237299;22;50223;-76
2022/11/21 16:48:22;;;;;;;;;9.00;7.50;;;;;9.83;100.00;99041.19;6237523;22;49700;-75
2022/11/21 16:50:48;;;;;;;;;6.75;6.25;;;;;9.81;100.00;99043.81;6234822;22;49570;-76